sensor_id;sensor_type;location;lat;lon;timestamp;P1;durP1;ratioP1;P2;durP2;ratioP2
42840;SDS011;28491;46.898;7.660;2023-12-20T00:01:18;8.57;;;5.43;;
42840;SDS011;28491;46.898;7.660;2023-12-20T00:03:44;7.03;;;5.32;;
42840;SDS011;28491;46.898;7.660;2023-12-20T00:06:09;7.97;;;5.70;;
42840;SDS011;28491;46.898;7.660;2023-12-20T00:08:35;13.02;;;6.15;;
42840;SDS011;28491;46.898;7.660;2023-12-20T00:11:01;11.77;;;6.32;;
42840;SDS011;28491;46.898;7.660;2023-12-20T00:13:26;11.85;;;6.78;;
42840;SDS011;28491;46.898;7.660;2023-12-20T00:15:52;12.07;;;7.13;;
42840;SDS011;28491;46.898;7.660;2023-12-20T00:18:18;12.50;;;6.90;;
42840;SDS011;28491;46.898;7.660;2023-12-20T00:20:43;15.25;;;8.50;;
42840;SDS011;28491;46.898;7.660;2023-12-20T00:23:09;15.43;;;8.15;;
42840;SDS011;28491;46.898;7.660;2023-12-20T00:25:34;14.10;;;8.73;;
42840;SDS011;28491;46.898;7.660;2023-12-20T00:28:00;17.80;;;9.23;;
42840;SDS011;28491;46.898;7.660;2023-12-20T00:30:26;14.05;;;7.90;;
42840;SDS011;28491;46.898;7.660;2023-12-20T00:32:51;15.02;;;8.10;;
42840;SDS011;28491;46.898;7.660;2023-12-20T00:35:17;12.25;;;7.05;;
42840;SDS011;28491;46.898;7.660;2023-12-20T00:37:43;9.40;;;5.57;;
42840;SDS011;28491;46.898;7.660;2023-12-20T00:40:09;8.55;;;5.72;;
42840;SDS011;28491;46.898;7.660;2023-12-20T00:42:35;10.02;;;5.88;;
42840;SDS011;28491;46.898;7.660;2023-12-20T00:45:01;9.38;;;4.85;;
42840;SDS011;28491;46.898;7.660;2023-12-20T00:47:27;6.72;;;4.70;;
42840;SDS011;28491;46.898;7.660;2023-12-20T00:49:53;7.43;;;5.07;;
42840;SDS011;28491;46.898;7.660;2023-12-20T00:52:18;7.13;;;5.68;;
42840;SDS011;28491;46.898;7.660;2023-12-20T00:54:44;9.45;;;5.40;;
42840;SDS011;28491;46.898;7.660;2023-12-20T00:57:09;8.65;;;5.45;;
42840;SDS011;28491;46.898;7.660;2023-12-20T00:59:35;9.50;;;4.63;;
42840;SDS011;28491;46.898;7.660;2023-12-20T01:02:01;8.18;;;5.28;;
42840;SDS011;28491;46.898;7.660;2023-12-20T01:04:26;6.47;;;4.78;;
42840;SDS011;28491;46.898;7.660;2023-12-20T01:06:52;8.88;;;5.50;;
42840;SDS011;28491;46.898;7.660;2023-12-20T01:09:18;6.28;;;4.72;;
42840;SDS011;28491;46.898;7.660;2023-12-20T01:11:44;7.47;;;4.30;;
42840;SDS011;28491;46.898;7.660;2023-12-20T01:14:11;6.85;;;4.25;;
42840;SDS011;28491;46.898;7.660;2023-12-20T01:16:37;9.13;;;5.43;;
42840;SDS011;28491;46.898;7.660;2023-12-20T01:19:02;6.72;;;4.25;;
42840;SDS011;28491;46.898;7.660;2023-12-20T01:21:28;9.32;;;4.70;;
42840;SDS011;28491;46.898;7.660;2023-12-20T01:23:53;7.88;;;5.10;;
42840;SDS011;28491;46.898;7.660;2023-12-20T01:26:19;6.30;;;4.38;;
42840;SDS011;28491;46.898;7.660;2023-12-20T01:28:44;8.07;;;4.60;;
42840;SDS011;28491;46.898;7.660;2023-12-20T01:31:10;7.13;;;5.18;;
42840;SDS011;28491;46.898;7.660;2023-12-20T01:33:35;6.25;;;4.30;;
42840;SDS011;28491;46.898;7.660;2023-12-20T01:36:01;7.85;;;4.63;;
42840;SDS011;28491;46.898;7.660;2023-12-20T01:38:27;8.15;;;5.65;;
42840;SDS011;28491;46.898;7.660;2023-12-20T01:40:53;7.60;;;5.28;;
42840;SDS011;28491;46.898;7.660;2023-12-20T01:43:18;8.45;;;4.50;;
42840;SDS011;28491;46.898;7.660;2023-12-20T01:45:44;6.82;;;4.25;;
42840;SDS011;28491;46.898;7.660;2023-12-20T01:48:09;8.70;;;5.07;;
42840;SDS011;28491;46.898;7.660;2023-12-20T01:50:36;9.00;;;5.28;;
42840;SDS011;28491;46.898;7.660;2023-12-20T01:53:03;7.05;;;4.68;;
42840;SDS011;28491;46.898;7.660;2023-12-20T01:55:31;8.13;;;4.43;;
42840;SDS011;28491;46.898;7.660;2023-12-20T02:00:26;7.68;;;4.38;;
42840;SDS011;28491;46.898;7.660;2023-12-20T02:02:53;7.78;;;4.45;;
42840;SDS011;28491;46.898;7.660;2023-12-20T02:05:19;9.93;;;5.35;;
42840;SDS011;28491;46.898;7.660;2023-12-20T02:07:46;8.27;;;4.22;;
42840;SDS011;28491;46.898;7.660;2023-12-20T02:10:11;8.27;;;4.55;;
42840;SDS011;28491;46.898;7.660;2023-12-20T02:12:38;9.60;;;4.80;;
42840;SDS011;28491;46.898;7.660;2023-12-20T02:15:03;6.75;;;4.45;;
42840;SDS011;28491;46.898;7.660;2023-12-20T02:17:30;8.15;;;5.13;;
42840;SDS011;28491;46.898;7.660;2023-12-20T02:19:57;8.63;;;5.18;;
42840;SDS011;28491;46.898;7.660;2023-12-20T02:22:22;7.32;;;5.05;;
42840;SDS011;28491;46.898;7.660;2023-12-20T02:24:48;7.82;;;4.88;;
42840;SDS011;28491;46.898;7.660;2023-12-20T02:27:13;7.25;;;4.88;;
42840;SDS011;28491;46.898;7.660;2023-12-20T02:32:08;8.02;;;4.78;;
42840;SDS011;28491;46.898;7.660;2023-12-20T02:34:33;7.07;;;4.63;;
42840;SDS011;28491;46.898;7.660;2023-12-20T02:36:59;8.70;;;4.05;;
42840;SDS011;28491;46.898;7.660;2023-12-20T02:39:24;7.22;;;4.40;;
42840;SDS011;28491;46.898;7.660;2023-12-20T02:41:50;5.55;;;3.63;;
42840;SDS011;28491;46.898;7.660;2023-12-20T02:44:15;5.43;;;3.53;;
42840;SDS011;28491;46.898;7.660;2023-12-20T02:46:41;4.40;;;3.03;;
42840;SDS011;28491;46.898;7.660;2023-12-20T02:49:07;5.45;;;3.17;;
42840;SDS011;28491;46.898;7.660;2023-12-20T02:51:32;6.65;;;3.42;;
42840;SDS011;28491;46.898;7.660;2023-12-20T02:53:58;3.85;;;2.95;;
42840;SDS011;28491;46.898;7.660;2023-12-20T02:56:23;5.20;;;2.95;;
42840;SDS011;28491;46.898;7.660;2023-12-20T02:58:49;5.90;;;2.80;;
42840;SDS011;28491;46.898;7.660;2023-12-20T03:01:14;5.28;;;2.60;;
42840;SDS011;28491;46.898;7.660;2023-12-20T03:03:40;5.47;;;3.72;;
42840;SDS011;28491;46.898;7.660;2023-12-20T03:06:05;4.05;;;2.60;;
42840;SDS011;28491;46.898;7.660;2023-12-20T03:08:31;4.00;;;2.63;;
42840;SDS011;28491;46.898;7.660;2023-12-20T03:10:56;4.55;;;3.03;;
42840;SDS011;28491;46.898;7.660;2023-12-20T03:13:24;3.78;;;2.38;;
42840;SDS011;28491;46.898;7.660;2023-12-20T03:15:49;4.22;;;2.60;;
42840;SDS011;28491;46.898;7.660;2023-12-20T03:18:15;4.07;;;2.47;;
42840;SDS011;28491;46.898;7.660;2023-12-20T03:20:41;3.95;;;2.60;;
42840;SDS011;28491;46.898;7.660;2023-12-20T03:23:06;5.45;;;3.08;;
42840;SDS011;28491;46.898;7.660;2023-12-20T03:25:32;5.07;;;3.55;;
42840;SDS011;28491;46.898;7.660;2023-12-20T03:27:57;4.80;;;3.22;;
42840;SDS011;28491;46.898;7.660;2023-12-20T03:30:23;3.83;;;2.55;;
42840;SDS011;28491;46.898;7.660;2023-12-20T03:32:49;4.65;;;2.53;;
42840;SDS011;28491;46.898;7.660;2023-12-20T03:35:14;5.35;;;3.35;;
42840;SDS011;28491;46.898;7.660;2023-12-20T03:37:40;4.00;;;2.90;;
42840;SDS011;28491;46.898;7.660;2023-12-20T03:40:05;3.78;;;2.65;;
42840;SDS011;28491;46.898;7.660;2023-12-20T03:42:31;4.35;;;2.80;;
42840;SDS011;28491;46.898;7.660;2023-12-20T03:44:57;4.53;;;3.03;;
42840;SDS011;28491;46.898;7.660;2023-12-20T03:47:22;5.57;;;3.05;;
42840;SDS011;28491;46.898;7.660;2023-12-20T03:49:48;5.55;;;3.45;;
42840;SDS011;28491;46.898;7.660;2023-12-20T03:52:13;5.65;;;3.08;;
42840;SDS011;28491;46.898;7.660;2023-12-20T03:54:39;5.63;;;2.72;;
42840;SDS011;28491;46.898;7.660;2023-12-20T03:57:07;5.55;;;3.65;;
42840;SDS011;28491;46.898;7.660;2023-12-20T03:59:36;4.40;;;2.83;;
42840;SDS011;28491;46.898;7.660;2023-12-20T04:02:01;4.03;;;3.08;;
42840;SDS011;28491;46.898;7.660;2023-12-20T04:04:27;6.95;;;3.13;;
42840;SDS011;28491;46.898;7.660;2023-12-20T04:06:53;5.57;;;3.10;;
42840;SDS011;28491;46.898;7.660;2023-12-20T04:09:18;5.80;;;3.30;;
42840;SDS011;28491;46.898;7.660;2023-12-20T04:11:44;6.78;;;3.80;;
42840;SDS011;28491;46.898;7.660;2023-12-20T04:14:09;5.00;;;3.25;;
42840;SDS011;28491;46.898;7.660;2023-12-20T04:16:35;4.50;;;2.88;;
42840;SDS011;28491;46.898;7.660;2023-12-20T04:19:01;7.05;;;2.50;;
42840;SDS011;28491;46.898;7.660;2023-12-20T04:21:27;5.68;;;3.38;;
42840;SDS011;28491;46.898;7.660;2023-12-20T04:23:52;5.88;;;3.95;;
42840;SDS011;28491;46.898;7.660;2023-12-20T04:26:18;6.18;;;3.47;;
42840;SDS011;28491;46.898;7.660;2023-12-20T04:28:43;4.97;;;3.45;;
42840;SDS011;28491;46.898;7.660;2023-12-20T04:31:09;5.60;;;3.25;;
42840;SDS011;28491;46.898;7.660;2023-12-20T04:33:34;6.95;;;4.05;;
42840;SDS011;28491;46.898;7.660;2023-12-20T04:36:00;6.70;;;4.40;;
42840;SDS011;28491;46.898;7.660;2023-12-20T04:38:25;6.03;;;4.30;;
42840;SDS011;28491;46.898;7.660;2023-12-20T04:40:51;6.28;;;4.65;;
42840;SDS011;28491;46.898;7.660;2023-12-20T04:43:17;6.45;;;4.80;;
42840;SDS011;28491;46.898;7.660;2023-12-20T04:45:42;6.47;;;4.05;;
42840;SDS011;28491;46.898;7.660;2023-12-20T04:48:08;5.47;;;3.92;;
42840;SDS011;28491;46.898;7.660;2023-12-20T04:50:33;9.95;;;5.32;;
42840;SDS011;28491;46.898;7.660;2023-12-20T04:52:59;6.00;;;4.20;;
42840;SDS011;28491;46.898;7.660;2023-12-20T04:55:25;7.13;;;4.40;;
42840;SDS011;28491;46.898;7.660;2023-12-20T04:57:50;5.28;;;3.85;;
42840;SDS011;28491;46.898;7.660;2023-12-20T05:00:16;4.88;;;3.30;;
42840;SDS011;28491;46.898;7.660;2023-12-20T05:02:41;6.68;;;4.22;;
42840;SDS011;28491;46.898;7.660;2023-12-20T05:05:07;6.80;;;5.57;;
42840;SDS011;28491;46.898;7.660;2023-12-20T05:07:33;7.68;;;4.70;;
42840;SDS011;28491;46.898;7.660;2023-12-20T05:09:58;7.18;;;4.53;;
42840;SDS011;28491;46.898;7.660;2023-12-20T05:12:24;9.30;;;4.95;;
42840;SDS011;28491;46.898;7.660;2023-12-20T05:14:51;8.60;;;4.70;;
42840;SDS011;28491;46.898;7.660;2023-12-20T05:17:17;7.55;;;4.57;;
42840;SDS011;28491;46.898;7.660;2023-12-20T05:19:42;9.20;;;6.13;;
42840;SDS011;28491;46.898;7.660;2023-12-20T05:22:08;7.40;;;5.43;;
42840;SDS011;28491;46.898;7.660;2023-12-20T05:24:34;7.45;;;5.22;;
42840;SDS011;28491;46.898;7.660;2023-12-20T05:26:59;9.90;;;5.43;;
42840;SDS011;28491;46.898;7.660;2023-12-20T05:29:25;8.30;;;5.78;;
42840;SDS011;28491;46.898;7.660;2023-12-20T05:31:50;6.57;;;4.82;;
42840;SDS011;28491;46.898;7.660;2023-12-20T05:34:16;5.80;;;3.83;;
42840;SDS011;28491;46.898;7.660;2023-12-20T05:36:41;4.88;;;2.42;;
42840;SDS011;28491;46.898;7.660;2023-12-20T05:39:07;4.88;;;2.67;;
42840;SDS011;28491;46.898;7.660;2023-12-20T05:41:32;8.00;;;3.25;;
42840;SDS011;28491;46.898;7.660;2023-12-20T05:43:58;3.15;;;2.00;;
42840;SDS011;28491;46.898;7.660;2023-12-20T05:46:24;2.60;;;1.52;;
42840;SDS011;28491;46.898;7.660;2023-12-20T05:48:50;3.50;;;2.60;;
42840;SDS011;28491;46.898;7.660;2023-12-20T05:51:16;2.08;;;1.58;;
42840;SDS011;28491;46.898;7.660;2023-12-20T05:53:42;2.05;;;1.48;;
42840;SDS011;28491;46.898;7.660;2023-12-20T05:56:09;2.70;;;1.67;;
42840;SDS011;28491;46.898;7.660;2023-12-20T05:58:34;2.13;;;1.45;;
42840;SDS011;28491;46.898;7.660;2023-12-20T06:01:00;3.08;;;1.90;;
42840;SDS011;28491;46.898;7.660;2023-12-20T06:03:26;3.30;;;2.15;;
42840;SDS011;28491;46.898;7.660;2023-12-20T06:05:51;5.53;;;2.67;;
42840;SDS011;28491;46.898;7.660;2023-12-20T06:08:17;6.13;;;2.90;;
42840;SDS011;28491;46.898;7.660;2023-12-20T06:10:42;4.25;;;3.10;;
42840;SDS011;28491;46.898;7.660;2023-12-20T06:13:08;5.55;;;3.00;;
42840;SDS011;28491;46.898;7.660;2023-12-20T06:15:33;4.95;;;2.50;;
42840;SDS011;28491;46.898;7.660;2023-12-20T06:17:59;3.35;;;2.60;;
42840;SDS011;28491;46.898;7.660;2023-12-20T06:20:24;4.47;;;2.67;;
42840;SDS011;28491;46.898;7.660;2023-12-20T06:22:50;5.00;;;3.22;;
42840;SDS011;28491;46.898;7.660;2023-12-20T06:25:16;5.35;;;3.17;;
42840;SDS011;28491;46.898;7.660;2023-12-20T06:27:41;3.97;;;2.55;;
42840;SDS011;28491;46.898;7.660;2023-12-20T06:30:07;3.88;;;2.30;;
42840;SDS011;28491;46.898;7.660;2023-12-20T06:32:34;4.43;;;2.28;;
42840;SDS011;28491;46.898;7.660;2023-12-20T06:35:00;2.95;;;1.73;;
42840;SDS011;28491;46.898;7.660;2023-12-20T06:37:25;3.33;;;2.03;;
42840;SDS011;28491;46.898;7.660;2023-12-20T06:39:51;3.08;;;2.10;;
42840;SDS011;28491;46.898;7.660;2023-12-20T06:42:16;2.75;;;1.80;;
42840;SDS011;28491;46.898;7.660;2023-12-20T06:44:42;3.05;;;1.40;;
42840;SDS011;28491;46.898;7.660;2023-12-20T06:47:08;1.60;;;1.13;;
42840;SDS011;28491;46.898;7.660;2023-12-20T06:49:33;3.10;;;1.90;;
42840;SDS011;28491;46.898;7.660;2023-12-20T06:51:59;4.20;;;1.75;;
42840;SDS011;28491;46.898;7.660;2023-12-20T06:54:24;2.45;;;1.77;;
42840;SDS011;28491;46.898;7.660;2023-12-20T06:56:50;2.53;;;1.98;;
42840;SDS011;28491;46.898;7.660;2023-12-20T06:59:15;3.60;;;1.83;;
42840;SDS011;28491;46.898;7.660;2023-12-20T07:01:41;3.33;;;1.80;;
42840;SDS011;28491;46.898;7.660;2023-12-20T07:04:07;1.77;;;1.30;;
42840;SDS011;28491;46.898;7.660;2023-12-20T07:06:33;2.47;;;1.40;;
42840;SDS011;28491;46.898;7.660;2023-12-20T07:08:58;3.10;;;1.60;;
42840;SDS011;28491;46.898;7.660;2023-12-20T07:11:24;2.95;;;1.73;;
42840;SDS011;28491;46.898;7.660;2023-12-20T07:13:51;2.42;;;1.88;;
42840;SDS011;28491;46.898;7.660;2023-12-20T07:16:16;2.65;;;1.63;;
42840;SDS011;28491;46.898;7.660;2023-12-20T07:18:42;4.75;;;2.05;;
42840;SDS011;28491;46.898;7.660;2023-12-20T07:21:07;2.55;;;1.83;;
42840;SDS011;28491;46.898;7.660;2023-12-20T07:23:33;3.40;;;2.10;;
42840;SDS011;28491;46.898;7.660;2023-12-20T07:25:59;5.45;;;2.78;;
42840;SDS011;28491;46.898;7.660;2023-12-20T07:28:24;2.35;;;1.80;;
42840;SDS011;28491;46.898;7.660;2023-12-20T07:30:50;3.08;;;2.00;;
42840;SDS011;28491;46.898;7.660;2023-12-20T07:33:15;3.22;;;1.90;;
42840;SDS011;28491;46.898;7.660;2023-12-20T07:35:41;3.17;;;2.17;;
42840;SDS011;28491;46.898;7.660;2023-12-20T07:38:07;5.40;;;3.72;;
42840;SDS011;28491;46.898;7.660;2023-12-20T07:40:32;4.65;;;2.75;;
42840;SDS011;28491;46.898;7.660;2023-12-20T07:42:58;3.90;;;2.83;;
42840;SDS011;28491;46.898;7.660;2023-12-20T07:45:23;5.03;;;3.80;;
42840;SDS011;28491;46.898;7.660;2023-12-20T07:47:49;6.05;;;4.35;;
42840;SDS011;28491;46.898;7.660;2023-12-20T07:50:15;4.53;;;3.25;;
42840;SDS011;28491;46.898;7.660;2023-12-20T07:52:41;6.32;;;3.47;;
42840;SDS011;28491;46.898;7.660;2023-12-20T07:55:06;7.07;;;4.18;;
42840;SDS011;28491;46.898;7.660;2023-12-20T07:57:32;4.82;;;3.47;;
42840;SDS011;28491;46.898;7.660;2023-12-20T07:59:58;6.32;;;3.92;;
42840;SDS011;28491;46.898;7.660;2023-12-20T08:02:23;6.28;;;3.58;;
42840;SDS011;28491;46.898;7.660;2023-12-20T08:04:49;5.82;;;4.40;;
42840;SDS011;28491;46.898;7.660;2023-12-20T08:07:14;4.63;;;3.03;;
42840;SDS011;28491;46.898;7.660;2023-12-20T08:09:40;4.78;;;3.30;;
42840;SDS011;28491;46.898;7.660;2023-12-20T08:12:05;4.82;;;3.70;;
42840;SDS011;28491;46.898;7.660;2023-12-20T08:14:31;5.47;;;2.97;;
42840;SDS011;28491;46.898;7.660;2023-12-20T08:16:57;4.57;;;3.30;;
42840;SDS011;28491;46.898;7.660;2023-12-20T08:19:22;4.82;;;2.80;;
42840;SDS011;28491;46.898;7.660;2023-12-20T08:21:50;7.45;;;3.22;;
42840;SDS011;28491;46.898;7.660;2023-12-20T08:24:15;5.63;;;3.38;;
42840;SDS011;28491;46.898;7.660;2023-12-20T08:26:41;6.40;;;3.28;;
42840;SDS011;28491;46.898;7.660;2023-12-20T08:29:06;6.63;;;4.40;;
42840;SDS011;28491;46.898;7.660;2023-12-20T08:31:32;8.52;;;4.00;;
42840;SDS011;28491;46.898;7.660;2023-12-20T08:33:58;5.75;;;3.83;;
42840;SDS011;28491;46.898;7.660;2023-12-20T08:36:23;6.05;;;4.25;;
42840;SDS011;28491;46.898;7.660;2023-12-20T08:38:49;5.97;;;3.88;;
42840;SDS011;28491;46.898;7.660;2023-12-20T08:41:16;4.72;;;3.60;;
42840;SDS011;28491;46.898;7.660;2023-12-20T08:43:42;5.05;;;3.63;;
42840;SDS011;28491;46.898;7.660;2023-12-20T08:46:08;5.80;;;4.28;;
42840;SDS011;28491;46.898;7.660;2023-12-20T08:48:37;5.45;;;3.95;;
42840;SDS011;28491;46.898;7.660;2023-12-20T08:51:03;6.82;;;4.32;;
42840;SDS011;28491;46.898;7.660;2023-12-20T08:53:29;4.57;;;3.40;;
42840;SDS011;28491;46.898;7.660;2023-12-20T08:55:54;7.50;;;3.30;;
42840;SDS011;28491;46.898;7.660;2023-12-20T08:58:20;7.60;;;4.15;;
42840;SDS011;28491;46.898;7.660;2023-12-20T09:00:46;6.75;;;3.30;;
42840;SDS011;28491;46.898;7.660;2023-12-20T09:03:11;4.18;;;3.38;;
42840;SDS011;28491;46.898;7.660;2023-12-20T09:05:37;7.82;;;4.00;;
42840;SDS011;28491;46.898;7.660;2023-12-20T09:08:02;5.30;;;3.80;;
42840;SDS011;28491;46.898;7.660;2023-12-20T09:10:28;4.90;;;3.65;;
42840;SDS011;28491;46.898;7.660;2023-12-20T09:12:54;6.40;;;4.10;;
42840;SDS011;28491;46.898;7.660;2023-12-20T09:15:22;5.90;;;3.70;;
42840;SDS011;28491;46.898;7.660;2023-12-20T09:17:48;9.57;;;5.65;;
42840;SDS011;28491;46.898;7.660;2023-12-20T09:20:14;9.10;;;5.07;;
42840;SDS011;28491;46.898;7.660;2023-12-20T09:22:40;9.32;;;4.68;;
42840;SDS011;28491;46.898;7.660;2023-12-20T09:25:06;7.88;;;5.45;;
42840;SDS011;28491;46.898;7.660;2023-12-20T09:27:32;10.80;;;5.07;;
42840;SDS011;28491;46.898;7.660;2023-12-20T09:29:58;7.22;;;4.55;;
42840;SDS011;28491;46.898;7.660;2023-12-20T09:32:23;9.40;;;4.68;;
42840;SDS011;28491;46.898;7.660;2023-12-20T09:34:49;9.00;;;5.25;;
42840;SDS011;28491;46.898;7.660;2023-12-20T09:37:15;6.03;;;4.47;;
42840;SDS011;28491;46.898;7.660;2023-12-20T09:39:40;6.15;;;4.40;;
42840;SDS011;28491;46.898;7.660;2023-12-20T09:42:06;5.22;;;3.78;;
42840;SDS011;28491;46.898;7.660;2023-12-20T09:44:32;9.25;;;4.43;;
42840;SDS011;28491;46.898;7.660;2023-12-20T09:46:59;5.30;;;3.47;;
42840;SDS011;28491;46.898;7.660;2023-12-20T09:49:28;7.17;;;3.67;;
42840;SDS011;28491;46.898;7.660;2023-12-20T09:51:54;4.35;;;3.00;;
42840;SDS011;28491;46.898;7.660;2023-12-20T09:54:20;4.13;;;2.50;;
42840;SDS011;28491;46.898;7.660;2023-12-20T09:56:46;3.53;;;2.88;;
42840;SDS011;28491;46.898;7.660;2023-12-20T09:59:12;4.18;;;2.83;;
42840;SDS011;28491;46.898;7.660;2023-12-20T10:01:39;4.85;;;2.60;;
42840;SDS011;28491;46.898;7.660;2023-12-20T10:04:06;5.15;;;3.33;;
42840;SDS011;28491;46.898;7.660;2023-12-20T10:06:52;8.33;;;5.13;;
42840;SDS011;28491;46.898;7.660;2023-12-20T10:09:17;7.30;;;4.78;;
42840;SDS011;28491;46.898;7.660;2023-12-20T10:11:43;6.97;;;4.63;;
42840;SDS011;28491;46.898;7.660;2023-12-20T10:14:10;8.35;;;4.03;;
42840;SDS011;28491;46.898;7.660;2023-12-20T10:16:36;6.00;;;4.03;;
42840;SDS011;28491;46.898;7.660;2023-12-20T10:19:01;7.10;;;4.50;;
42840;SDS011;28491;46.898;7.660;2023-12-20T10:21:27;6.28;;;4.43;;
42840;SDS011;28491;46.898;7.660;2023-12-20T10:23:56;11.07;;;4.53;;
42840;SDS011;28491;46.898;7.660;2023-12-20T10:26:23;6.63;;;3.38;;
42840;SDS011;28491;46.898;7.660;2023-12-20T10:31:29;5.97;;;3.25;;
42840;SDS011;28491;46.898;7.660;2023-12-20T10:34:00;8.35;;;3.80;;
42840;SDS011;28491;46.898;7.660;2023-12-20T10:36:27;6.55;;;3.30;;
42840;SDS011;28491;46.898;7.660;2023-12-20T10:38:55;4.63;;;2.72;;
42840;SDS011;28491;46.898;7.660;2023-12-20T10:41:29;8.20;;;4.22;;
42840;SDS011;28491;46.898;7.660;2023-12-20T10:43:59;5.82;;;3.42;;
42840;SDS011;28491;46.898;7.660;2023-12-20T10:46:26;6.35;;;2.85;;
42840;SDS011;28491;46.898;7.660;2023-12-20T10:48:54;6.60;;;3.50;;
42840;SDS011;28491;46.898;7.660;2023-12-20T10:51:20;6.15;;;3.25;;
42840;SDS011;28491;46.898;7.660;2023-12-20T10:53:47;4.82;;;2.78;;
42840;SDS011;28491;46.898;7.660;2023-12-20T10:56:15;4.53;;;2.80;;
42840;SDS011;28491;46.898;7.660;2023-12-20T10:58:42;4.55;;;2.15;;
42840;SDS011;28491;46.898;7.660;2023-12-20T11:01:09;5.22;;;2.38;;
42840;SDS011;28491;46.898;7.660;2023-12-20T11:03:38;2.88;;;1.85;;
42840;SDS011;28491;46.898;7.660;2023-12-20T11:09:31;1.80;;;1.40;;
42840;SDS011;28491;46.898;7.660;2023-12-20T11:14:48;1.40;;;1.20;;
42840;SDS011;28491;46.898;7.660;2023-12-20T11:17:15;1.75;;;1.20;;
42840;SDS011;28491;46.898;7.660;2023-12-20T11:22:24;1.70;;;1.13;;
42840;SDS011;28491;46.898;7.660;2023-12-20T11:24:51;2.85;;;1.30;;
42840;SDS011;28491;46.898;7.660;2023-12-20T11:27:18;1.90;;;1.27;;
42840;SDS011;28491;46.898;7.660;2023-12-20T11:29:51;2.88;;;1.42;;
42840;SDS011;28491;46.898;7.660;2023-12-20T11:34:53;2.00;;;1.55;;
42840;SDS011;28491;46.898;7.660;2023-12-20T11:37:28;2.10;;;1.58;;
42840;SDS011;28491;46.898;7.660;2023-12-20T11:40:00;1.42;;;1.25;;
42840;SDS011;28491;46.898;7.660;2023-12-20T11:42:27;2.75;;;1.52;;
42840;SDS011;28491;46.898;7.660;2023-12-20T11:44:53;2.33;;;1.52;;
42840;SDS011;28491;46.898;7.660;2023-12-20T11:47:18;1.60;;;1.08;;
42840;SDS011;28491;46.898;7.660;2023-12-20T11:49:46;2.05;;;1.45;;
42840;SDS011;28491;46.898;7.660;2023-12-20T11:52:13;1.80;;;1.30;;
42840;SDS011;28491;46.898;7.660;2023-12-20T11:54:39;1.85;;;1.20;;
42840;SDS011;28491;46.898;7.660;2023-12-20T11:57:04;2.17;;;1.55;;
42840;SDS011;28491;46.898;7.660;2023-12-20T11:59:30;1.75;;;1.10;;
42840;SDS011;28491;46.898;7.660;2023-12-20T12:01:56;1.20;;;1.10;;
42840;SDS011;28491;46.898;7.660;2023-12-20T12:04:25;2.58;;;1.73;;
42840;SDS011;28491;46.898;7.660;2023-12-20T12:06:52;2.60;;;1.85;;
42840;SDS011;28491;46.898;7.660;2023-12-20T12:09:17;1.65;;;1.13;;
42840;SDS011;28491;46.898;7.660;2023-12-20T12:11:43;1.90;;;1.33;;
42840;SDS011;28491;46.898;7.660;2023-12-20T12:16:44;1.92;;;1.35;;
42840;SDS011;28491;46.898;7.660;2023-12-20T12:19:20;1.40;;;1.17;;
42840;SDS011;28491;46.898;7.660;2023-12-20T12:22:07;2.42;;;1.42;;
42840;SDS011;28491;46.898;7.660;2023-12-20T12:24:45;2.00;;;1.58;;
42840;SDS011;28491;46.898;7.660;2023-12-20T12:27:12;1.77;;;1.30;;
42840;SDS011;28491;46.898;7.660;2023-12-20T12:29:38;3.75;;;1.63;;
42840;SDS011;28491;46.898;7.660;2023-12-20T12:32:05;1.98;;;1.40;;
42840;SDS011;28491;46.898;7.660;2023-12-20T12:34:33;1.63;;;1.05;;
42840;SDS011;28491;46.898;7.660;2023-12-20T12:36:59;1.83;;;1.55;;
42840;SDS011;28491;46.898;7.660;2023-12-20T12:39:25;0.82;;;0.80;;
42840;SDS011;28491;46.898;7.660;2023-12-20T12:41:51;1.67;;;1.30;;
42840;SDS011;28491;46.898;7.660;2023-12-20T12:44:17;1.73;;;1.20;;
42840;SDS011;28491;46.898;7.660;2023-12-20T12:46:44;2.85;;;1.33;;
42840;SDS011;28491;46.898;7.660;2023-12-20T12:49:10;1.60;;;1.00;;
42840;SDS011;28491;46.898;7.660;2023-12-20T12:51:36;1.30;;;1.10;;
42840;SDS011;28491;46.898;7.660;2023-12-20T12:54:01;2.05;;;1.40;;
42840;SDS011;28491;46.898;7.660;2023-12-20T12:56:28;1.92;;;1.63;;
42840;SDS011;28491;46.898;7.660;2023-12-20T12:58:54;3.38;;;1.40;;
42840;SDS011;28491;46.898;7.660;2023-12-20T13:01:20;2.42;;;1.60;;
42840;SDS011;28491;46.898;7.660;2023-12-20T13:03:45;2.90;;;1.50;;
42840;SDS011;28491;46.898;7.660;2023-12-20T13:06:11;2.17;;;1.83;;
42840;SDS011;28491;46.898;7.660;2023-12-20T13:08:37;2.58;;;1.63;;
42840;SDS011;28491;46.898;7.660;2023-12-20T13:11:03;1.42;;;1.20;;
42840;SDS011;28491;46.898;7.660;2023-12-20T13:13:29;2.15;;;1.55;;
42840;SDS011;28491;46.898;7.660;2023-12-20T13:15:55;2.92;;;1.63;;
42840;SDS011;28491;46.898;7.660;2023-12-20T13:18:22;3.47;;;1.70;;
42840;SDS011;28491;46.898;7.660;2023-12-20T13:20:48;2.33;;;1.65;;
42840;SDS011;28491;46.898;7.660;2023-12-20T13:23:13;2.42;;;1.90;;
42840;SDS011;28491;46.898;7.660;2023-12-20T13:25:39;2.20;;;1.73;;
42840;SDS011;28491;46.898;7.660;2023-12-20T13:28:06;2.67;;;1.73;;
42840;SDS011;28491;46.898;7.660;2023-12-20T13:30:31;2.92;;;2.00;;
42840;SDS011;28491;46.898;7.660;2023-12-20T13:32:57;4.53;;;2.00;;
42840;SDS011;28491;46.898;7.660;2023-12-20T13:35:23;2.10;;;1.48;;
42840;SDS011;28491;46.898;7.660;2023-12-20T13:37:48;2.83;;;1.60;;
42840;SDS011;28491;46.898;7.660;2023-12-20T13:40:14;2.45;;;1.80;;
42840;SDS011;28491;46.898;7.660;2023-12-20T13:42:40;2.45;;;1.98;;
42840;SDS011;28491;46.898;7.660;2023-12-20T13:45:05;2.72;;;1.83;;
42840;SDS011;28491;46.898;7.660;2023-12-20T13:47:32;2.28;;;1.70;;
42840;SDS011;28491;46.898;7.660;2023-12-20T13:49:58;2.17;;;1.70;;
42840;SDS011;28491;46.898;7.660;2023-12-20T13:52:23;1.83;;;1.38;;
42840;SDS011;28491;46.898;7.660;2023-12-20T13:54:49;3.70;;;2.67;;
42840;SDS011;28491;46.898;7.660;2023-12-20T13:57:14;1.73;;;1.20;;
42840;SDS011;28491;46.898;7.660;2023-12-20T13:59:40;2.50;;;1.55;;
42840;SDS011;28491;46.898;7.660;2023-12-20T14:02:05;2.58;;;1.48;;
42840;SDS011;28491;46.898;7.660;2023-12-20T14:04:31;2.20;;;1.20;;
42840;SDS011;28491;46.898;7.660;2023-12-20T14:06:57;3.83;;;1.73;;
42840;SDS011;28491;46.898;7.660;2023-12-20T14:09:22;1.67;;;1.25;;
42840;SDS011;28491;46.898;7.660;2023-12-20T14:11:48;1.23;;;1.13;;
42840;SDS011;28491;46.898;7.660;2023-12-20T14:14:13;2.17;;;1.30;;
42840;SDS011;28491;46.898;7.660;2023-12-20T14:16:39;1.23;;;1.00;;
42840;SDS011;28491;46.898;7.660;2023-12-20T14:19:04;1.25;;;1.08;;
42840;SDS011;28491;46.898;7.660;2023-12-20T14:21:32;1.65;;;1.15;;
42840;SDS011;28491;46.898;7.660;2023-12-20T14:23:58;1.55;;;1.10;;
42840;SDS011;28491;46.898;7.660;2023-12-20T14:26:24;1.60;;;1.30;;
42840;SDS011;28491;46.898;7.660;2023-12-20T14:28:49;2.22;;;1.60;;
42840;SDS011;28491;46.898;7.660;2023-12-20T14:31:15;1.95;;;1.52;;
42840;SDS011;28491;46.898;7.660;2023-12-20T14:33:40;3.05;;;1.52;;
42840;SDS011;28491;46.898;7.660;2023-12-20T14:36:07;3.67;;;1.90;;
42840;SDS011;28491;46.898;7.660;2023-12-20T14:38:33;1.85;;;1.33;;
42840;SDS011;28491;46.898;7.660;2023-12-20T14:41:00;4.00;;;1.98;;
42840;SDS011;28491;46.898;7.660;2023-12-20T14:43:25;2.72;;;1.45;;
42840;SDS011;28491;46.898;7.660;2023-12-20T14:45:51;3.17;;;1.90;;
42840;SDS011;28491;46.898;7.660;2023-12-20T14:48:17;4.22;;;2.08;;
42840;SDS011;28491;46.898;7.660;2023-12-20T14:50:43;2.63;;;1.23;;
42840;SDS011;28491;46.898;7.660;2023-12-20T14:53:09;2.17;;;1.38;;
42840;SDS011;28491;46.898;7.660;2023-12-20T14:55:35;3.10;;;1.33;;
42840;SDS011;28491;46.898;7.660;2023-12-20T14:58:00;4.63;;;2.90;;
42840;SDS011;28491;46.898;7.660;2023-12-20T15:00:26;3.80;;;2.45;;
42840;SDS011;28491;46.898;7.660;2023-12-20T15:02:52;2.15;;;1.48;;